sensor_id;sensor_type;location;lat;lon;timestamp;P1;durP1;ratioP1;P2;durP2;ratioP2
74967;SDS011;63523;51.880;12.630;2023-06-19T00:00:38;12.00;;;6.90;;
74967;SDS011;63523;51.880;12.630;2023-06-19T00:03:04;9.20;;;6.03;;
74967;SDS011;63523;51.880;12.630;2023-06-19T00:05:30;8.77;;;6.20;;
74967;SDS011;63523;51.880;12.630;2023-06-19T00:07:55;9.80;;;5.60;;
74967;SDS011;63523;51.880;12.630;2023-06-19T00:10:20;8.97;;;6.30;;
74967;SDS011;63523;51.880;12.630;2023-06-19T00:12:46;8.85;;;6.13;;
74967;SDS011;63523;51.880;12.630;2023-06-19T00:15:11;9.17;;;6.43;;
74967;SDS011;63523;51.880;12.630;2023-06-19T00:17:36;8.23;;;5.73;;
74967;SDS011;63523;51.880;12.630;2023-06-19T00:20:05;8.68;;;6.05;;
74967;SDS011;63523;51.880;12.630;2023-06-19T00:22:31;9.02;;;6.38;;
74967;SDS011;63523;51.880;12.630;2023-06-19T00:24:57;8.80;;;6.27;;
74967;SDS011;63523;51.880;12.630;2023-06-19T00:27:22;11.10;;;7.40;;
74967;SDS011;63523;51.880;12.630;2023-06-19T00:29:49;10.98;;;6.97;;
74967;SDS011;63523;51.880;12.630;2023-06-19T00:32:15;9.57;;;6.60;;
74967;SDS011;63523;51.880;12.630;2023-06-19T00:34:40;9.30;;;6.30;;
74967;SDS011;63523;51.880;12.630;2023-06-19T00:37:07;9.98;;;7.00;;
74967;SDS011;63523;51.880;12.630;2023-06-19T00:39:33;9.33;;;6.43;;
74967;SDS011;63523;51.880;12.630;2023-06-19T00:41:58;11.33;;;7.17;;
74967;SDS011;63523;51.880;12.630;2023-06-19T00:44:24;11.37;;;7.20;;
74967;SDS011;63523;51.880;12.630;2023-06-19T00:46:51;14.23;;;6.57;;
74967;SDS011;63523;51.880;12.630;2023-06-19T00:49:20;12.40;;;6.88;;
74967;SDS011;63523;51.880;12.630;2023-06-19T00:51:46;9.70;;;6.45;;
74967;SDS011;63523;51.880;12.630;2023-06-19T00:54:11;10.00;;;7.03;;
74967;SDS011;63523;51.880;12.630;2023-06-19T00:56:37;10.43;;;6.87;;
74967;SDS011;63523;51.880;12.630;2023-06-19T00:59:06;13.75;;;7.03;;
74967;SDS011;63523;51.880;12.630;2023-06-19T01:01:35;9.85;;;7.25;;
74967;SDS011;63523;51.880;12.630;2023-06-19T01:04:01;9.80;;;6.80;;
74967;SDS011;63523;51.880;12.630;2023-06-19T01:06:27;10.17;;;6.73;;
74967;SDS011;63523;51.880;12.630;2023-06-19T01:09:04;10.40;;;6.93;;
74967;SDS011;63523;51.880;12.630;2023-06-19T01:11:37;11.20;;;7.90;;
74967;SDS011;63523;51.880;12.630;2023-06-19T01:14:08;10.57;;;7.03;;
74967;SDS011;63523;51.880;12.630;2023-06-19T01:16:37;12.05;;;7.50;;
74967;SDS011;63523;51.880;12.630;2023-06-19T01:19:03;11.18;;;7.22;;
74967;SDS011;63523;51.880;12.630;2023-06-19T01:21:30;10.18;;;7.15;;
74967;SDS011;63523;51.880;12.630;2023-06-19T01:23:56;11.37;;;7.30;;
74967;SDS011;63523;51.880;12.630;2023-06-19T01:26:22;10.70;;;6.93;;
74967;SDS011;63523;51.880;12.630;2023-06-19T01:28:52;12.40;;;7.70;;
74967;SDS011;63523;51.880;12.630;2023-06-19T01:31:30;10.00;;;7.03;;
74967;SDS011;63523;51.880;12.630;2023-06-19T01:34:01;10.63;;;7.10;;
74967;SDS011;63523;51.880;12.630;2023-06-19T01:36:28;10.07;;;6.95;;
74967;SDS011;63523;51.880;12.630;2023-06-19T01:38:55;10.45;;;7.30;;
74967;SDS011;63523;51.880;12.630;2023-06-19T01:41:22;9.90;;;7.10;;
74967;SDS011;63523;51.880;12.630;2023-06-19T01:43:49;10.23;;;7.32;;
74967;SDS011;63523;51.880;12.630;2023-06-19T01:46:15;10.80;;;7.45;;
74967;SDS011;63523;51.880;12.630;2023-06-19T01:48:40;10.97;;;7.60;;
74967;SDS011;63523;51.880;12.630;2023-06-19T01:51:06;10.33;;;7.13;;
74967;SDS011;63523;51.880;12.630;2023-06-19T01:53:31;9.80;;;7.13;;
74967;SDS011;63523;51.880;12.630;2023-06-19T01:55:57;10.15;;;7.07;;
74967;SDS011;63523;51.880;12.630;2023-06-19T01:58:23;9.30;;;6.93;;
74967;SDS011;63523;51.880;12.630;2023-06-19T02:00:48;9.47;;;7.40;;
74967;SDS011;63523;51.880;12.630;2023-06-19T02:03:13;10.83;;;8.60;;
74967;SDS011;63523;51.880;12.630;2023-06-19T02:05:39;10.43;;;6.83;;
74967;SDS011;63523;51.880;12.630;2023-06-19T02:08:04;11.00;;;7.63;;
74967;SDS011;63523;51.880;12.630;2023-06-19T02:10:31;11.35;;;7.35;;
74967;SDS011;63523;51.880;12.630;2023-06-19T02:12:56;9.83;;;7.00;;
74967;SDS011;63523;51.880;12.630;2023-06-19T02:15:21;10.83;;;7.20;;
74967;SDS011;63523;51.880;12.630;2023-06-19T02:17:47;9.80;;;7.73;;
74967;SDS011;63523;51.880;12.630;2023-06-19T02:20:12;11.17;;;7.57;;
74967;SDS011;63523;51.880;12.630;2023-06-19T02:22:38;11.53;;;8.07;;
74967;SDS011;63523;51.880;12.630;2023-06-19T02:25:04;10.27;;;7.78;;
74967;SDS011;63523;51.880;12.630;2023-06-19T02:27:30;10.75;;;7.72;;
74967;SDS011;63523;51.880;12.630;2023-06-19T02:29:55;10.23;;;7.43;;
74967;SDS011;63523;51.880;12.630;2023-06-19T02:32:20;10.83;;;7.70;;
74967;SDS011;63523;51.880;12.630;2023-06-19T02:34:46;11.33;;;8.30;;
74967;SDS011;63523;51.880;12.630;2023-06-19T02:37:11;10.33;;;7.47;;
74967;SDS011;63523;51.880;12.630;2023-06-19T02:39:36;10.55;;;7.47;;
74967;SDS011;63523;51.880;12.630;2023-06-19T02:42:01;10.80;;;8.20;;
74967;SDS011;63523;51.880;12.630;2023-06-19T02:44:27;11.17;;;8.00;;
74967;SDS011;63523;51.880;12.630;2023-06-19T02:46:52;10.67;;;7.67;;
74967;SDS011;63523;51.880;12.630;2023-06-19T02:49:18;11.17;;;7.87;;
74967;SDS011;63523;51.880;12.630;2023-06-19T02:51:43;11.07;;;8.17;;
74967;SDS011;63523;51.880;12.630;2023-06-19T02:54:08;12.50;;;8.23;;
74967;SDS011;63523;51.880;12.630;2023-06-19T02:56:33;11.33;;;7.83;;
74967;SDS011;63523;51.880;12.630;2023-06-19T02:58:59;11.50;;;8.27;;
74967;SDS011;63523;51.880;12.630;2023-06-19T03:01:24;11.37;;;8.00;;
74967;SDS011;63523;51.880;12.630;2023-06-19T03:03:49;11.33;;;8.03;;
74967;SDS011;63523;51.880;12.630;2023-06-19T03:06:17;10.98;;;8.25;;
74967;SDS011;63523;51.880;12.630;2023-06-19T03:08:43;10.60;;;7.53;;
74967;SDS011;63523;51.880;12.630;2023-06-19T03:11:08;11.90;;;8.30;;
74967;SDS011;63523;51.880;12.630;2023-06-19T03:13:43;10.98;;;7.63;;
74967;SDS011;63523;51.880;12.630;2023-06-19T03:16:18;12.37;;;8.07;;
74967;SDS011;63523;51.880;12.630;2023-06-19T03:18:44;10.85;;;8.07;;
74967;SDS011;63523;51.880;12.630;2023-06-19T03:21:13;13.02;;;8.35;;
74967;SDS011;63523;51.880;12.630;2023-06-19T03:23:39;11.68;;;9.40;;
74967;SDS011;63523;51.880;12.630;2023-06-19T03:26:10;12.83;;;8.60;;
74967;SDS011;63523;51.880;12.630;2023-06-19T03:28:36;13.15;;;9.13;;
74967;SDS011;63523;51.880;12.630;2023-06-19T03:31:02;11.13;;;8.25;;
74967;SDS011;63523;51.880;12.630;2023-06-19T03:33:27;11.20;;;8.27;;
74967;SDS011;63523;51.880;12.630;2023-06-19T03:35:52;10.97;;;8.07;;
74967;SDS011;63523;51.880;12.630;2023-06-19T03:38:18;11.60;;;8.23;;
74967;SDS011;63523;51.880;12.630;2023-06-19T03:40:43;11.57;;;8.60;;
74967;SDS011;63523;51.880;12.630;2023-06-19T03:43:08;11.67;;;8.47;;
74967;SDS011;63523;51.880;12.630;2023-06-19T03:45:33;12.13;;;8.43;;
74967;SDS011;63523;51.880;12.630;2023-06-19T03:47:59;13.10;;;9.90;;
74967;SDS011;63523;51.880;12.630;2023-06-19T03:50:24;11.13;;;8.07;;
74967;SDS011;63523;51.880;12.630;2023-06-19T03:52:49;12.33;;;8.80;;
74967;SDS011;63523;51.880;12.630;2023-06-19T03:55:15;11.70;;;8.17;;
74967;SDS011;63523;51.880;12.630;2023-06-19T03:57:40;11.70;;;9.13;;
74967;SDS011;63523;51.880;12.630;2023-06-19T04:00:06;12.70;;;8.70;;
74967;SDS011;63523;51.880;12.630;2023-06-19T04:02:36;11.25;;;8.32;;
74967;SDS011;63523;51.880;12.630;2023-06-19T04:05:02;15.23;;;9.53;;
74967;SDS011;63523;51.880;12.630;2023-06-19T04:07:27;12.20;;;8.90;;
74967;SDS011;63523;51.880;12.630;2023-06-19T04:09:53;12.60;;;9.10;;
74967;SDS011;63523;51.880;12.630;2023-06-19T04:12:18;13.27;;;9.17;;
74967;SDS011;63523;51.880;12.630;2023-06-19T04:14:44;13.00;;;9.48;;
74967;SDS011;63523;51.880;12.630;2023-06-19T04:17:09;12.40;;;8.53;;
74967;SDS011;63523;51.880;12.630;2023-06-19T04:19:34;12.53;;;9.80;;
74967;SDS011;63523;51.880;12.630;2023-06-19T04:21:59;12.13;;;8.60;;
74967;SDS011;63523;51.880;12.630;2023-06-19T04:24:25;12.40;;;9.47;;
74967;SDS011;63523;51.880;12.630;2023-06-19T04:26:50;15.90;;;9.53;;
74967;SDS011;63523;51.880;12.630;2023-06-19T04:29:16;13.03;;;8.80;;
74967;SDS011;63523;51.880;12.630;2023-06-19T04:31:45;14.05;;;9.75;;
74967;SDS011;63523;51.880;12.630;2023-06-19T04:34:15;13.82;;;9.70;;
74967;SDS011;63523;51.880;12.630;2023-06-19T04:36:41;12.25;;;9.48;;
74967;SDS011;63523;51.880;12.630;2023-06-19T04:39:06;13.03;;;9.80;;
74967;SDS011;63523;51.880;12.630;2023-06-19T04:41:32;13.60;;;10.13;;
74967;SDS011;63523;51.880;12.630;2023-06-19T04:43:57;13.93;;;10.23;;
74967;SDS011;63523;51.880;12.630;2023-06-19T04:46:22;13.80;;;9.93;;
74967;SDS011;63523;51.880;12.630;2023-06-19T04:48:48;13.27;;;10.20;;
74967;SDS011;63523;51.880;12.630;2023-06-19T04:51:16;12.73;;;9.37;;
74967;SDS011;63523;51.880;12.630;2023-06-19T04:53:45;12.55;;;9.45;;
74967;SDS011;63523;51.880;12.630;2023-06-19T04:56:10;13.40;;;9.52;;
74967;SDS011;63523;51.880;12.630;2023-06-19T04:58:35;12.37;;;8.97;;
74967;SDS011;63523;51.880;12.630;2023-06-19T05:01:01;13.10;;;9.73;;
74967;SDS011;63523;51.880;12.630;2023-06-19T05:03:26;15.23;;;10.13;;
74967;SDS011;63523;51.880;12.630;2023-06-19T05:05:51;13.27;;;9.30;;
74967;SDS011;63523;51.880;12.630;2023-06-19T05:08:17;12.60;;;8.83;;
74967;SDS011;63523;51.880;12.630;2023-06-19T05:10:42;12.70;;;9.57;;
74967;SDS011;63523;51.880;12.630;2023-06-19T05:13:07;14.07;;;10.13;;
74967;SDS011;63523;51.880;12.630;2023-06-19T05:15:32;14.17;;;10.23;;
74967;SDS011;63523;51.880;12.630;2023-06-19T05:17:58;15.43;;;10.68;;
74967;SDS011;63523;51.880;12.630;2023-06-19T05:20:23;14.63;;;10.33;;
74967;SDS011;63523;51.880;12.630;2023-06-19T05:22:48;15.70;;;9.83;;
74967;SDS011;63523;51.880;12.630;2023-06-19T05:25:13;14.53;;;10.33;;
74967;SDS011;63523;51.880;12.630;2023-06-19T05:27:39;12.23;;;9.03;;
74967;SDS011;63523;51.880;12.630;2023-06-19T05:30:05;12.30;;;9.17;;
74967;SDS011;63523;51.880;12.630;2023-06-19T05:32:30;13.20;;;9.65;;
74967;SDS011;63523;51.880;12.630;2023-06-19T05:34:56;14.13;;;10.43;;
74967;SDS011;63523;51.880;12.630;2023-06-19T05:37:21;12.35;;;8.75;;
74967;SDS011;63523;51.880;12.630;2023-06-19T05:39:47;12.17;;;9.00;;
74967;SDS011;63523;51.880;12.630;2023-06-19T05:42:13;13.75;;;9.65;;
74967;SDS011;63523;51.880;12.630;2023-06-19T05:44:38;12.07;;;8.93;;
74967;SDS011;63523;51.880;12.630;2023-06-19T05:47:05;13.02;;;9.50;;
74967;SDS011;63523;51.880;12.630;2023-06-19T05:49:30;13.70;;;9.53;;
74967;SDS011;63523;51.880;12.630;2023-06-19T05:51:56;13.23;;;9.20;;
74967;SDS011;63523;51.880;12.630;2023-06-19T05:54:23;11.95;;;8.73;;
74967;SDS011;63523;51.880;12.630;2023-06-19T05:56:49;13.38;;;10.02;;
74967;SDS011;63523;51.880;12.630;2023-06-19T05:59:15;12.83;;;9.13;;
74967;SDS011;63523;51.880;12.630;2023-06-19T06:01:40;14.70;;;10.17;;
74967;SDS011;63523;51.880;12.630;2023-06-19T06:04:06;13.35;;;9.60;;
74967;SDS011;63523;51.880;12.630;2023-06-19T06:06:31;14.77;;;9.20;;
74967;SDS011;63523;51.880;12.630;2023-06-19T06:08:56;12.93;;;9.67;;
74967;SDS011;63523;51.880;12.630;2023-06-19T06:11:22;13.13;;;9.43;;
74967;SDS011;63523;51.880;12.630;2023-06-19T06:13:47;14.25;;;10.10;;
74967;SDS011;63523;51.880;12.630;2023-06-19T06:16:13;12.87;;;9.10;;
74967;SDS011;63523;51.880;12.630;2023-06-19T06:18:39;12.37;;;8.70;;
74967;SDS011;63523;51.880;12.630;2023-06-19T06:21:04;13.05;;;9.05;;
74967;SDS011;63523;51.880;12.630;2023-06-19T06:23:29;13.93;;;9.73;;
74967;SDS011;63523;51.880;12.630;2023-06-19T06:25:55;13.70;;;9.33;;
74967;SDS011;63523;51.880;12.630;2023-06-19T06:28:26;12.65;;;9.07;;
74967;SDS011;63523;51.880;12.630;2023-06-19T06:30:51;13.17;;;9.03;;
74967;SDS011;63523;51.880;12.630;2023-06-19T06:33:17;15.07;;;10.43;;
74967;SDS011;63523;51.880;12.630;2023-06-19T06:35:42;12.93;;;9.60;;
74967;SDS011;63523;51.880;12.630;2023-06-19T06:38:08;13.52;;;10.00;;
74967;SDS011;63523;51.880;12.630;2023-06-19T06:40:34;14.20;;;10.48;;
74967;SDS011;63523;51.880;12.630;2023-06-19T06:42:59;13.77;;;10.10;;
74967;SDS011;63523;51.880;12.630;2023-06-19T06:45:25;12.77;;;9.47;;
74967;SDS011;63523;51.880;12.630;2023-06-19T06:47:50;12.30;;;9.33;;
74967;SDS011;63523;51.880;12.630;2023-06-19T06:50:15;13.07;;;9.50;;
74967;SDS011;63523;51.880;12.630;2023-06-19T06:52:41;13.10;;;9.80;;
74967;SDS011;63523;51.880;12.630;2023-06-19T06:55:06;13.82;;;9.50;;
74967;SDS011;63523;51.880;12.630;2023-06-19T06:57:32;13.93;;;10.43;;
74967;SDS011;63523;51.880;12.630;2023-06-19T06:59:57;12.47;;;9.23;;
74967;SDS011;63523;51.880;12.630;2023-06-19T07:02:22;18.27;;;10.83;;
74967;SDS011;63523;51.880;12.630;2023-06-19T07:04:49;12.23;;;9.32;;
74967;SDS011;63523;51.880;12.630;2023-06-19T07:07:14;14.82;;;9.30;;
74967;SDS011;63523;51.880;12.630;2023-06-19T07:09:39;14.30;;;11.00;;
74967;SDS011;63523;51.880;12.630;2023-06-19T07:12:05;12.83;;;9.90;;
74967;SDS011;63523;51.880;12.630;2023-06-19T07:14:32;14.70;;;10.30;;
74967;SDS011;63523;51.880;12.630;2023-06-19T07:16:57;14.73;;;11.07;;
74967;SDS011;63523;51.880;12.630;2023-06-19T07:19:22;12.93;;;9.77;;
74967;SDS011;63523;51.880;12.630;2023-06-19T07:21:49;14.27;;;10.07;;
74967;SDS011;63523;51.880;12.630;2023-06-19T07:24:15;12.57;;;9.15;;
74967;SDS011;63523;51.880;12.630;2023-06-19T07:26:41;12.77;;;9.37;;
74967;SDS011;63523;51.880;12.630;2023-06-19T07:29:06;12.70;;;9.30;;
74967;SDS011;63523;51.880;12.630;2023-06-19T07:31:31;13.03;;;9.73;;
74967;SDS011;63523;51.880;12.630;2023-06-19T07:33:56;15.17;;;10.77;;
74967;SDS011;63523;51.880;12.630;2023-06-19T07:36:22;15.13;;;10.70;;
74967;SDS011;63523;51.880;12.630;2023-06-19T07:38:47;13.20;;;9.73;;
74967;SDS011;63523;51.880;12.630;2023-06-19T07:41:12;12.07;;;8.90;;
74967;SDS011;63523;51.880;12.630;2023-06-19T07:43:37;13.53;;;9.83;;
74967;SDS011;63523;51.880;12.630;2023-06-19T07:46:03;13.63;;;10.53;;
74967;SDS011;63523;51.880;12.630;2023-06-19T07:48:29;12.88;;;9.48;;
74967;SDS011;63523;51.880;12.630;2023-06-19T07:50:54;13.60;;;9.83;;
74967;SDS011;63523;51.880;12.630;2023-06-19T07:53:20;13.53;;;9.70;;
74967;SDS011;63523;51.880;12.630;2023-06-19T07:55:45;11.87;;;9.00;;
74967;SDS011;63523;51.880;12.630;2023-06-19T07:58:11;14.07;;;10.80;;
74967;SDS011;63523;51.880;12.630;2023-06-19T08:00:36;12.57;;;9.47;;
74967;SDS011;63523;51.880;12.630;2023-06-19T08:03:02;13.50;;;9.87;;
74967;SDS011;63523;51.880;12.630;2023-06-19T08:05:27;15.60;;;10.33;;
74967;SDS011;63523;51.880;12.630;2023-06-19T08:07:52;16.02;;;9.52;;
74967;SDS011;63523;51.880;12.630;2023-06-19T08:10:17;14.93;;;9.73;;
74967;SDS011;63523;51.880;12.630;2023-06-19T08:12:43;14.20;;;11.03;;
74967;SDS011;63523;51.880;12.630;2023-06-19T08:15:10;13.48;;;9.88;;
74967;SDS011;63523;51.880;12.630;2023-06-19T08:17:36;14.30;;;10.30;;
74967;SDS011;63523;51.880;12.630;2023-06-19T08:20:02;13.48;;;9.63;;
74967;SDS011;63523;51.880;12.630;2023-06-19T08:22:30;12.70;;;10.00;;
74967;SDS011;63523;51.880;12.630;2023-06-19T08:24:55;14.60;;;9.60;;
74967;SDS011;63523;51.880;12.630;2023-06-19T08:27:20;13.50;;;10.07;;
74967;SDS011;63523;51.880;12.630;2023-06-19T08:29:46;14.60;;;9.70;;
74967;SDS011;63523;51.880;12.630;2023-06-19T08:32:11;13.33;;;10.07;;
74967;SDS011;63523;51.880;12.630;2023-06-19T08:34:36;12.80;;;9.73;;
74967;SDS011;63523;51.880;12.630;2023-06-19T08:37:03;11.98;;;9.35;;
74967;SDS011;63523;51.880;12.630;2023-06-19T08:39:28;13.97;;;10.87;;
74967;SDS011;63523;51.880;12.630;2023-06-19T08:41:54;14.70;;;10.37;;
74967;SDS011;63523;51.880;12.630;2023-06-19T08:44:19;14.67;;;10.30;;
74967;SDS011;63523;51.880;12.630;2023-06-19T08:46:44;15.13;;;10.40;;
74967;SDS011;63523;51.880;12.630;2023-06-19T08:49:10;17.00;;;11.23;;
74967;SDS011;63523;51.880;12.630;2023-06-19T08:51:35;14.18;;;9.65;;
74967;SDS011;63523;51.880;12.630;2023-06-19T08:54:02;13.17;;;9.80;;
74967;SDS011;63523;51.880;12.630;2023-06-19T08:56:29;12.60;;;9.93;;
74967;SDS011;63523;51.880;12.630;2023-06-19T08:59:07;13.55;;;9.73;;
74967;SDS011;63523;51.880;12.630;2023-06-19T09:01:33;14.35;;;11.23;;
74967;SDS011;63523;51.880;12.630;2023-06-19T09:03:59;15.50;;;10.67;;
74967;SDS011;63523;51.880;12.630;2023-06-19T09:06:24;14.20;;;9.67;;
74967;SDS011;63523;51.880;12.630;2023-06-19T09:08:59;13.67;;;10.10;;
74967;SDS011;63523;51.880;12.630;2023-06-19T09:11:25;13.40;;;9.65;;
74967;SDS011;63523;51.880;12.630;2023-06-19T09:13:56;12.17;;;8.93;;
74967;SDS011;63523;51.880;12.630;2023-06-19T09:16:22;12.27;;;9.55;;
74967;SDS011;63523;51.880;12.630;2023-06-19T09:18:49;12.23;;;9.38;;
74967;SDS011;63523;51.880;12.630;2023-06-19T09:21:18;14.77;;;10.80;;
74967;SDS011;63523;51.880;12.630;2023-06-19T09:23:46;13.57;;;9.57;;
74967;SDS011;63523;51.880;12.630;2023-06-19T09:26:15;13.45;;;9.82;;
74967;SDS011;63523;51.880;12.630;2023-06-19T09:28:41;12.95;;;9.55;;
74967;SDS011;63523;51.880;12.630;2023-06-19T09:31:07;14.20;;;10.70;;
74967;SDS011;63523;51.880;12.630;2023-06-19T09:33:33;14.67;;;10.67;;
74967;SDS011;63523;51.880;12.630;2023-06-19T09:36:00;14.38;;;10.73;;
74967;SDS011;63523;51.880;12.630;2023-06-19T09:38:27;14.50;;;10.73;;
74967;SDS011;63523;51.880;12.630;2023-06-19T09:40:53;13.20;;;9.87;;
74967;SDS011;63523;51.880;12.630;2023-06-19T09:43:24;18.92;;;11.32;;
74967;SDS011;63523;51.880;12.630;2023-06-19T09:45:51;13.07;;;9.77;;
74967;SDS011;63523;51.880;12.630;2023-06-19T09:48:22;13.32;;;9.85;;
74967;SDS011;63523;51.880;12.630;2023-06-19T09:50:53;14.55;;;10.65;;
74967;SDS011;63523;51.880;12.630;2023-06-19T09:53:23;12.53;;;9.23;;
74967;SDS011;63523;51.880;12.630;2023-06-19T09:55:49;11.48;;;9.07;;
74967;SDS011;63523;51.880;12.630;2023-06-19T09:58:18;13.27;;;9.32;;
74967;SDS011;63523;51.880;12.630;2023-06-19T10:00:45;10.68;;;8.07;;
74967;SDS011;63523;51.880;12.630;2023-06-19T10:03:12;12.70;;;9.07;;
74967;SDS011;63523;51.880;12.630;2023-06-19T10:05:38;12.65;;;9.27;;
74967;SDS011;63523;51.880;12.630;2023-06-19T10:08:03;14.70;;;9.90;;
74967;SDS011;63523;51.880;12.630;2023-06-19T10:10:29;10.80;;;8.43;;
74967;SDS011;63523;51.880;12.630;2023-06-19T10:12:56;10.90;;;8.18;;
74967;SDS011;63523;51.880;12.630;2023-06-19T10:15:24;11.07;;;8.57;;
74967;SDS011;63523;51.880;12.630;2023-06-19T10:18:01;11.47;;;8.30;;
74967;SDS011;63523;51.880;12.630;2023-06-19T10:25:35;10.88;;;8.45;;
74967;SDS011;63523;51.880;12.630;2023-06-19T10:28:02;10.13;;;7.90;;
74967;SDS011;63523;51.880;12.630;2023-06-19T10:30:31;11.03;;;8.23;;
74967;SDS011;63523;51.880;12.630;2023-06-19T10:32:56;10.52;;;8.20;;
74967;SDS011;63523;51.880;12.630;2023-06-19T10:35:22;11.53;;;7.90;;
74967;SDS011;63523;51.880;12.630;2023-06-19T10:37:49;9.73;;;7.35;;
74967;SDS011;63523;51.880;12.630;2023-06-19T10:40:15;10.30;;;6.90;;
74967;SDS011;63523;51.880;12.630;2023-06-19T10:42:40;10.17;;;6.90;;
74967;SDS011;63523;51.880;12.630;2023-06-19T10:45:06;10.93;;;7.80;;
74967;SDS011;63523;51.880;12.630;2023-06-19T10:47:33;9.52;;;7.65;;
74967;SDS011;63523;51.880;12.630;2023-06-19T10:49:59;11.40;;;7.67;;
74967;SDS011;63523;51.880;12.630;2023-06-19T10:52:24;9.60;;;7.00;;
74967;SDS011;63523;51.880;12.630;2023-06-19T10:54:53;8.50;;;6.13;;
74967;SDS011;63523;51.880;12.630;2023-06-19T10:57:25;10.13;;;6.90;;
74967;SDS011;63523;51.880;12.630;2023-06-19T10:59:54;8.90;;;6.78;;
74967;SDS011;63523;51.880;12.630;2023-06-19T11:02:19;10.43;;;6.83;;
74967;SDS011;63523;51.880;12.630;2023-06-19T11:04:45;10.27;;;7.10;;
74967;SDS011;63523;51.880;12.630;2023-06-19T11:07:11;9.17;;;6.67;;
74967;SDS011;63523;51.880;12.630;2023-06-19T11:09:37;9.48;;;6.80;;
74967;SDS011;63523;51.880;12.630;2023-06-19T11:12:02;7.73;;;6.30;;
74967;SDS011;63523;51.880;12.630;2023-06-19T11:14:29;8.60;;;6.00;;
74967;SDS011;63523;51.880;12.630;2023-06-19T11:16:55;9.55;;;6.88;;
74967;SDS011;63523;51.880;12.630;2023-06-19T11:19:21;10.23;;;6.63;;
74967;SDS011;63523;51.880;12.630;2023-06-19T11:21:49;9.60;;;6.18;;
74967;SDS011;63523;51.880;12.630;2023-06-19T11:24:15;9.93;;;6.47;;
74967;SDS011;63523;51.880;12.630;2023-06-19T11:26:42;7.80;;;6.20;;
74967;SDS011;63523;51.880;12.630;2023-06-19T11:29:24;7.28;;;6.32;;
74967;SDS011;63523;51.880;12.630;2023-06-19T11:31:51;8.17;;;5.90;;
74967;SDS011;63523;51.880;12.630;2023-06-19T11:34:19;8.30;;;6.13;;
74967;SDS011;63523;51.880;12.630;2023-06-19T11:36:45;7.50;;;6.20;;
74967;SDS011;63523;51.880;12.630;2023-06-19T11:39:11;11.63;;;6.60;;
74967;SDS011;63523;51.880;12.630;2023-06-19T11:41:38;7.25;;;5.55;;
74967;SDS011;63523;51.880;12.630;2023-06-19T11:44:04;7.30;;;5.45;;
74967;SDS011;63523;51.880;12.630;2023-06-19T11:46:31;10.05;;;6.93;;
74967;SDS011;63523;51.880;12.630;2023-06-19T11:49:13;9.20;;;6.37;;
74967;SDS011;63523;51.880;12.630;2023-06-19T11:51:41;8.50;;;6.82;;
74967;SDS011;63523;51.880;12.630;2023-06-19T11:54:07;12.10;;;7.10;;
74967;SDS011;63523;51.880;12.630;2023-06-19T11:56:37;9.73;;;6.97;;
74967;SDS011;63523;51.880;12.630;2023-06-19T11:59:03;8.02;;;6.20;;
74967;SDS011;63523;51.880;12.630;2023-06-19T12:01:29;8.57;;;6.93;;
74967;SDS011;63523;51.880;12.630;2023-06-19T12:03:58;8.32;;;6.35;;
74967;SDS011;63523;51.880;12.630;2023-06-19T12:06:23;8.20;;;6.38;;
74967;SDS011;63523;51.880;12.630;2023-06-19T12:08:49;8.40;;;6.53;;
74967;SDS011;63523;51.880;12.630;2023-06-19T12:11:14;8.03;;;6.17;;
74967;SDS011;63523;51.880;12.630;2023-06-19T12:13:40;9.23;;;6.68;;
74967;SDS011;63523;51.880;12.630;2023-06-19T12:16:06;9.53;;;6.73;;
74967;SDS011;63523;51.880;12.630;2023-06-19T12:18:32;7.95;;;6.38;;
74967;SDS011;63523;51.880;12.630;2023-06-19T12:20:57;8.00;;;6.50;;
74967;SDS011;63523;51.880;12.630;2023-06-19T12:23:22;8.97;;;6.97;;
74967;SDS011;63523;51.880;12.630;2023-06-19T12:25:48;8.77;;;6.40;;
74967;SDS011;63523;51.880;12.630;2023-06-19T12:28:13;9.17;;;6.27;;
74967;SDS011;63523;51.880;12.630;2023-06-19T12:30:43;9.03;;;6.50;;
74967;SDS011;63523;51.880;12.630;2023-06-19T12:33:09;7.90;;;6.10;;
74967;SDS011;63523;51.880;12.630;2023-06-19T12:35:34;8.80;;;6.27;;
74967;SDS011;63523;51.880;12.630;2023-06-19T12:37:59;7.70;;;6.37;;
74967;SDS011;63523;51.880;12.630;2023-06-19T12:40:25;8.48;;;6.38;;
74967;SDS011;63523;51.880;12.630;2023-06-19T12:42:50;8.03;;;6.10;;
74967;SDS011;63523;51.880;12.630;2023-06-19T12:45:15;8.87;;;6.57;;
74967;SDS011;63523;51.880;12.630;2023-06-19T12:47:41;8.80;;;6.37;;
74967;SDS011;63523;51.880;12.630;2023-06-19T12:50:06;10.10;;;6.63;;
74967;SDS011;63523;51.880;12.630;2023-06-19T12:52:32;8.50;;;5.80;;
74967;SDS011;63523;51.880;12.630;2023-06-19T12:54:57;7.87;;;6.23;;
74967;SDS011;63523;51.880;12.630;2023-06-19T12:57:24;8.73;;;6.85;;
74967;SDS011;63523;51.880;12.630;2023-06-19T12:59:50;9.23;;;6.73;;
74967;SDS011;63523;51.880;12.630;2023-06-19T13:02:15;8.53;;;6.57;;
74967;SDS011;63523;51.880;12.630;2023-06-19T13:04:40;9.03;;;7.27;;
74967;SDS011;63523;51.880;12.630;2023-06-19T13:07:05;8.57;;;6.60;;
74967;SDS011;63523;51.880;12.630;2023-06-19T13:09:31;9.05;;;7.18;;
74967;SDS011;63523;51.880;12.630;2023-06-19T13:11:57;9.13;;;6.43;;
74967;SDS011;63523;51.880;12.630;2023-06-19T13:14:22;10.07;;;7.17;;
74967;SDS011;63523;51.880;12.630;2023-06-19T13:16:47;8.87;;;6.57;;
74967;SDS011;63523;51.880;12.630;2023-06-19T13:19:15;9.90;;;6.90;;
74967;SDS011;63523;51.880;12.630;2023-06-19T13:21:41;9.02;;;7.15;;
74967;SDS011;63523;51.880;12.630;2023-06-19T13:24:06;8.38;;;6.75;;
74967;SDS011;63523;51.880;12.630;2023-06-19T13:26:32;8.03;;;6.47;;
74967;SDS011;63523;51.880;12.630;2023-06-19T13:28:57;12.47;;;7.00;;
74967;SDS011;63523;51.880;12.630;2023-06-19T13:31:24;8.30;;;6.10;;
74967;SDS011;63523;51.880;12.630;2023-06-19T13:33:50;7.97;;;6.57;;
74967;SDS011;63523;51.880;12.630;2023-06-19T13:36:15;8.00;;;6.30;;
74967;SDS011;63523;51.880;12.630;2023-06-19T13:38:41;8.85;;;6.95;;
74967;SDS011;63523;51.880;12.630;2023-06-19T13:41:07;7.80;;;6.27;;
74967;SDS011;63523;51.880;12.630;2023-06-19T13:43:32;8.30;;;6.27;;
74967;SDS011;63523;51.880;12.630;2023-06-19T13:45:57;7.53;;;5.97;;
74967;SDS011;63523;51.880;12.630;2023-06-19T13:48:23;9.67;;;6.23;;
74967;SDS011;63523;51.880;12.630;2023-06-19T13:50:48;8.60;;;6.47;;
74967;SDS011;63523;51.880;12.630;2023-06-19T13:53:13;7.27;;;5.80;;
74967;SDS011;63523;51.880;12.630;2023-06-19T13:55:39;7.60;;;5.80;;
74967;SDS011;63523;51.880;12.630;2023-06-19T13:58:04;8.20;;;6.27;;
74967;SDS011;63523;51.880;12.630;2023-06-19T14:00:29;7.93;;;6.30;;
74967;SDS011;63523;51.880;12.630;2023-06-19T14:02:55;8.68;;;6.22;;
74967;SDS011;63523;51.880;12.630;2023-06-19T14:05:21;8.37;;;6.43;;
74967;SDS011;63523;51.880;12.630;2023-06-19T14:07:46;7.63;;;6.10;;
74967;SDS011;63523;51.880;12.630;2023-06-19T14:10:11;8.17;;;5.83;;
74967;SDS011;63523;51.880;12.630;2023-06-19T14:12:37;9.30;;;6.90;;
74967;SDS011;63523;51.880;12.630;2023-06-19T14:15:02;8.23;;;6.60;;
74967;SDS011;63523;51.880;12.630;2023-06-19T14:17:27;9.17;;;6.07;;
74967;SDS011;63523;51.880;12.630;2023-06-19T14:19:53;11.70;;;6.80;;
74967;SDS011;63523;51.880;12.630;2023-06-19T14:22:20;8.32;;;6.40;;